Terminal Aerodrome Forecast
Issued by NWS North Platte, NE

Home | Current Version | Previous Version | Text Only | Print | Product List | Glossary Off
Versions: 1 2 3 4 5 6 7 8 9 10 11 12 13 14

000
FTUS43 KLBF 181700
TAFVTN
TAF
KVTN 181728Z 1818/1918 18012G19KT P6SM SKC
     FM182100 17015G21KT P6SM SKC
     FM190000 20006KT P6SM SCT250
     FM191200 26006KT P6SM BKN250=

USA.gov is the U.S. government's official web portal to all federal, state and local government web resources and services.